Time;durP1;ratioP1;P1;durP2;ratioP2;P2;SDS_P1;SDS_P2;PMS_P1;PMS_P2;Temp;Humidity;BMP_temperature;BMP_pressure;BME280_temperature;BME280_humidity;BME280_pressure;Samples;Min_cycle;Max_cycle;Signal;HPM_P1;HPM_P2
2023/10/22 00:00:48;;;;;;;5.53;1.10;;;;;8.20;93126.00;;;;7398573;19;20158;-77
2023/10/22 00:03:23;;;;;;;3.73;1.00;;;;;8.30;93122.00;;;;7396160;19;20220;-78
2023/10/22 00:06:01;;;;;;;4.30;1.00;;;;;8.30;93114.00;;;;7395895;19;20644;-80
2023/10/22 00:08:36;;;;;;;2.97;0.90;;;;;8.40;93121.00;;;;7396971;19;20475;-80
2023/10/22 00:11:11;;;;;;;4.83;1.10;;;;;8.50;93128.00;;;;7395586;19;20220;-80
2023/10/22 00:13:58;;;;;;;5.10;1.17;;;;;8.70;93133.00;;;;7397326;19;20133;-78
2023/10/22 00:16:26;;;;;;;3.13;0.80;;;;;8.70;93141.00;;;;7395257;19;20156;-79
2023/10/22 00:19:01;;;;;;;2.43;0.87;;;;;8.70;93143.00;;;;7395047;19;20161;-79
2023/10/22 00:21:36;;;;;;;3.03;1.10;;;;;8.60;93144.00;;;;7397019;19;20139;-80
2023/10/22 00:24:04;;;;;;;1.47;0.73;;;;;8.70;93144.00;;;;7396748;19;20129;-79
2023/10/22 00:26:39;;;;;;;3.53;1.07;;;;;8.60;93144.00;;;;7398091;19;20142;-79
2023/10/22 00:29:07;;;;;;;1.70;0.73;;;;;8.70;93153.00;;;;7396122;19;20140;-79
2023/10/22 00:31:42;;;;;;;2.93;0.93;;;;;8.70;93153.00;;;;7394901;19;20152;-78
2023/10/22 00:34:17;;;;;;;1.67;0.80;;;;;8.80;93155.00;;;;7397214;19;20242;-79
2023/10/22 00:36:52;;;;;;;2.70;0.80;;;;;8.80;93155.00;;;;7396410;19;20140;-78
2023/10/22 00:39:20;;;;;;;5.67;1.00;;;;;8.70;93158.00;;;;7396840;19;20621;-77
2023/10/22 00:41:54;;;;;;;1.53;0.70;;;;;8.70;93167.00;;;;7396823;19;20463;-80
2023/10/22 00:44:23;;;;;;;1.70;0.63;;;;;8.70;93173.00;;;;7397463;19;20133;-80
2023/10/22 00:46:57;;;;;;;2.57;0.80;;;;;8.60;93176.00;;;;7394908;19;20168;-79
2023/10/22 00:49:25;;;;;;;3.30;1.03;;;;;8.50;93172.00;;;;7394872;19;20145;-79
2023/10/22 00:52:01;;;;;;;2.67;1.13;;;;;8.30;93174.00;;;;7394565;19;20156;-77
2023/10/22 00:54:29;;;;;;;2.90;0.80;;;;;8.20;93179.00;;;;7395155;19;20144;-79
2023/10/22 00:57:03;;;;;;;4.70;0.70;;;;;8.00;93182.00;;;;7395392;19;20151;-77
2023/10/22 00:59:38;;;;;;;3.10;1.10;;;;;8.00;93184.00;;;;7395788;19;20660;-79
2023/10/22 01:02:23;;;;;;;3.40;0.90;;;;;7.80;93188.00;;;;7396021;19;20165;-76
2023/10/22 01:04:58;;;;;;;2.87;0.83;;;;;7.70;93187.00;;;;7395160;19;20652;-79
2023/10/22 01:07:33;;;;;;;4.17;0.90;;;;;7.80;93192.00;;;;7393854;19;20140;-79
2023/10/22 01:10:04;;;;;;;5.33;1.10;;;;;7.90;93180.00;;;;7396671;19;20165;-78
2023/10/22 01:12:45;;;;;;;1.30;0.93;;;;;7.90;93185.00;;;;7392728;19;20229;-78
2023/10/22 01:15:31;;;;;;;3.23;1.13;;;;;7.90;93190.00;;;;7392622;19;20164;-80
2023/10/22 01:18:11;;;;;;;2.33;0.80;;;;;7.90;93194.00;;;;7392223;19;20215;-77
2023/10/22 01:20:47;;;;;;;2.90;1.23;;;;;8.00;93194.00;;;;7395247;19;20132;-80
2023/10/22 01:23:23;;;;;;;1.87;0.90;;;;;8.10;93199.00;;;;7393729;19;20124;-77
2023/10/22 01:25:52;;;;;;;5.40;1.07;;;;;8.10;93199.00;;;;7392979;19;20136;-77
2023/10/22 01:28:27;;;;;;;3.03;0.80;;;;;8.10;93188.00;;;;7394096;19;20152;-78
2023/10/22 01:30:59;;;;;;;1.47;1.00;;;;;8.00;93191.00;;;;7394149;19;20652;-80
2023/10/22 01:33:33;;;;;;;2.70;0.97;;;;;7.90;93189.00;;;;7393303;19;20156;-78
2023/10/22 01:36:02;;;;;;;1.50;0.80;;;;;7.90;93194.00;;;;7393868;19;20137;-80
2023/10/22 01:38:37;;;;;;;1.90;1.10;;;;;7.90;93191.00;;;;7396920;19;20140;-79
2023/10/22 01:41:06;;;;;;;3.77;1.20;;;;;7.80;93192.00;;;;7395238;19;20137;-80
2023/10/22 01:43:41;;;;;;;1.23;0.63;;;;;7.90;93189.00;;;;7394733;19;20477;-79
2023/10/22 01:46:16;;;;;;;2.07;1.10;;;;;7.90;93189.00;;;;7395271;19;20113;-78
2023/10/22 01:48:50;;;;;;;4.33;0.97;;;;;7.90;93183.00;;;;7395836;19;20192;-78
2023/10/22 01:51:25;;;;;;;3.40;1.17;;;;;7.80;93187.00;;;;7393581;19;20132;-79
2023/10/22 01:54:01;;;;;;;3.00;1.27;;;;;7.70;93188.00;;;;7393637;19;20626;-79
2023/10/22 01:56:35;;;;;;;4.97;1.50;;;;;7.80;93191.00;;;;7393822;19;20144;-80
2023/10/22 01:59:10;;;;;;;4.83;1.20;;;;;7.80;93196.00;;;;7395482;19;20124;-77
2023/10/22 02:01:39;;;;;;;2.90;1.20;;;;;7.70;93190.00;;;;7393076;19;20164;-78
2023/10/22 02:04:14;;;;;;;2.23;1.07;;;;;7.60;93189.00;;;;7395072;19;20208;-78
2023/10/22 02:06:43;;;;;;;2.37;1.33;;;;;7.60;93202.00;;;;7393083;19;20652;-77
2023/10/22 02:09:11;;;;;;;2.93;1.00;;;;;7.70;93206.00;;;;7393981;19;20149;-80
2023/10/22 02:11:52;;;;;;;1.63;0.77;;;;;7.60;93200.00;;;;7393515;19;20223;-78
2023/10/22 02:14:20;;;;;;;3.07;0.90;;;;;7.40;93206.00;;;;7394315;19;20136;-78
2023/10/22 02:16:55;;;;;;;2.93;1.10;;;;;7.50;93202.00;;;;7391908;19;20211;-78
2023/10/22 02:19:23;;;;;;;6.23;1.40;;;;;7.70;93195.00;;;;7393618;19;20156;-78
2023/10/22 02:21:59;;;;;;;2.73;1.10;;;;;7.80;93199.00;;;;7392542;19;20500;-78
2023/10/22 02:24:28;;;;;;;1.47;0.90;;;;;7.80;93202.00;;;;7395030;19;20150;-77
2023/10/22 02:26:57;;;;;;;3.90;1.30;;;;;7.70;93209.00;;;;7393483;19;20149;-80
2023/10/22 02:29:33;;;;;;;2.07;0.90;;;;;7.80;93206.00;;;;7392471;19;20152;-81
2023/10/22 02:32:03;;;;;;;1.20;1.10;;;;;7.60;93212.00;;;;7389354;19;20144;-80
2023/10/22 02:34:37;;;;;;;4.87;1.10;;;;;7.50;93217.00;;;;7391950;19;20136;-78
2023/10/22 02:37:12;;;;;;;1.30;0.90;;;;;7.30;93212.00;;;;7393162;19;20220;-80
2023/10/22 02:39:46;;;;;;;4.97;1.10;;;;;7.10;93209.00;;;;7392245;19;20147;-78
2023/10/22 02:42:15;;;;;;;2.97;1.10;;;;;7.00;93215.00;;;;7394824;19;20157;-78
2023/10/22 02:44:50;;;;;;;3.17;1.10;;;;;6.90;93204.00;;;;7394567;19;20129;-79
2023/10/22 02:47:24;;;;;;;3.37;1.10;;;;;7.00;93219.00;;;;7398725;19;20147;-79
2023/10/22 02:49:58;;;;;;;3.93;0.90;;;;;7.00;93217.00;;;;7400897;19;20132;-79
2023/10/22 02:52:43;;;;;;;4.90;1.27;;;;;6.90;93229.00;;;;7399315;19;20141;-79
2023/10/22 02:55:18;;;;;;;4.43;1.10;;;;;6.90;93226.00;;;;7400309;19;20149;-79
2023/10/22 02:57:52;;;;;;;4.77;1.00;;;;;6.90;93225.00;;;;7400354;19;20143;-78
2023/10/22 03:00:28;;;;;;;2.43;0.97;;;;;7.00;93240.00;;;;7399946;19;20144;-78
2023/10/22 03:03:04;;;;;;;1.67;1.10;;;;;6.60;93238.00;;;;7399705;19;20139;-78
2023/10/22 03:05:38;;;;;;;1.60;1.23;;;;;6.60;93252.00;;;;7399824;19;20136;-79
2023/10/22 03:08:13;;;;;;;3.90;1.20;;;;;6.60;93243.00;;;;7401486;19;20583;-80
2023/10/22 03:10:48;;;;;;;2.60;0.90;;;;;6.50;93253.00;;;;7398377;19;20144;-79
2023/10/22 03:13:28;;;;;;;1.57;1.00;;;;;6.40;93254.00;;;;7398435;19;20560;-79
2023/10/22 03:15:58;;;;;;;4.87;1.20;;;;;6.30;93261.00;;;;7398051;19;20604;-80
2023/10/22 03:18:33;;;;;;;3.37;0.97;;;;;6.50;93265.00;;;;7401615;19;20152;-79
2023/10/22 03:21:09;;;;;;;4.47;1.00;;;;;6.70;93257.00;;;;7398820;19;20153;-80
2023/10/22 03:23:48;;;;;;;4.20;1.30;;;;;7.00;93268.00;;;;7400443;19;20626;-77
2023/10/22 03:26:17;;;;;;;6.10;1.00;;;;;6.90;93261.00;;;;7398533;19;20151;-79
2023/10/22 03:28:52;;;;;;;2.30;0.80;;;;;6.90;93269.00;;;;7396690;19;20151;-79
2023/10/22 03:31:21;;;;;;;1.63;1.07;;;;;6.90;93273.00;;;;7398826;19;20200;-79
2023/10/22 03:33:56;;;;;;;5.07;1.30;;;;;7.00;93279.00;;;;7398032;19;20136;-80
2023/10/22 03:36:24;;;;;;;6.57;1.27;;;;;7.00;93272.00;;;;7397402;19;20639;-78
2023/10/22 03:38:59;;;;;;;3.57;0.90;;;;;7.10;93276.00;;;;7397437;19;20156;-79
2023/10/22 03:41:53;;;;;;;5.53;1.20;;;;;7.20;93282.00;;;;7398515;19;20544;-80
2023/10/22 03:44:21;;;;;;;5.17;1.03;;;;;7.20;93280.00;;;;7397580;19;20618;-78
2023/10/22 03:46:55;;;;;;;6.47;0.90;;;;;7.20;93278.00;;;;7396916;19;20619;-80
2023/10/22 03:49:32;;;;;;;6.00;1.17;;;;;7.30;93272.00;;;;7399465;19;20149;-82
2023/10/22 03:52:06;;;;;;;3.20;1.33;;;;;7.20;93284.00;;;;7398548;19;20387;-81
2023/10/22 03:54:43;;;;;;;4.40;0.80;;;;;7.20;93285.00;;;;7397268;19;20454;-79
2023/10/22 03:57:18;;;;;;;3.23;0.80;;;;;7.30;93287.00;;;;7397130;19;20487;-78
2023/10/22 03:59:46;;;;;;;2.20;0.90;;;;;7.20;93288.00;;;;7399720;19;20140;-80
2023/10/22 04:02:21;;;;;;;2.33;0.90;;;;;7.30;93293.00;;;;7394892;19;20632;-79
2023/10/22 04:04:55;;;;;;;2.53;0.63;;;;;7.30;93291.00;;;;7398076;19;20607;-78
2023/10/22 04:07:31;;;;;;;3.67;1.10;;;;;7.20;93289.00;;;;7397178;19;20148;-80
2023/10/22 04:10:18;;;;;;;3.03;1.53;;;;;7.30;93297.00;;;;7395839;19;20165;-80
2023/10/22 04:12:54;;;;;;;2.10;0.83;;;;;7.30;93294.00;;;;7396912;19;20141;-77
2023/10/22 04:15:37;;;;;;;4.70;1.03;;;;;7.40;93299.00;;;;7395762;19;20201;-76
2023/10/22 04:18:05;;;;;;;3.97;1.00;;;;;7.40;93302.00;;;;7395217;19;20152;-80
2023/10/22 04:20:42;;;;;;;4.77;1.67;;;;;7.30;93300.00;;;;7396054;19;20169;-79
2023/10/22 04:23:10;;;;;;;2.10;1.10;;;;;7.30;93300.00;;;;7398327;19;20132;-77
2023/10/22 04:25:45;;;;;;;0.80;0.63;;;;;7.40;93296.00;;;;7396412;19;20225;-79
2023/10/22 04:28:21;;;;;;;3.37;0.87;;;;;7.30;93299.00;;;;7397935;19;20151;-78
2023/10/22 04:30:57;;;;;;;2.83;1.00;;;;;7.10;93303.00;;;;7394850;19;20141;-80
2023/10/22 04:33:32;;;;;;;4.50;1.10;;;;;7.50;93298.00;;;;7396557;19;20128;-80
2023/10/22 04:36:16;;;;;;;3.30;1.00;;;;;7.40;93299.00;;;;7395770;19;20741;-79
2023/10/22 04:38:44;;;;;;;4.23;0.90;;;;;7.50;93297.00;;;;7397231;19;20144;-79
2023/10/22 04:41:38;;;;;;;8.60;1.30;;;;;7.30;93302.00;;;;7396843;19;20160;-77
2023/10/22 04:44:12;;;;;;;2.33;0.90;;;;;7.30;93299.00;;;;7395783;19;20651;-78
2023/10/22 04:46:47;;;;;;;4.37;1.00;;;;;7.20;93301.00;;;;7393567;19;20144;-77
2023/10/22 04:49:17;;;;;;;6.10;1.30;;;;;7.30;93302.00;;;;7394732;19;20148;-79
2023/10/22 04:51:56;;;;;;;3.30;1.03;;;;;7.40;93302.00;;;;7391077;19;20137;-76
2023/10/22 04:54:30;;;;;;;2.90;1.20;;;;;7.30;93305.00;;;;7395914;19;20148;-79
2023/10/22 04:57:08;;;;;;;3.77;1.10;;;;;7.30;93306.00;;;;7395236;19;20148;-78
2023/10/22 04:59:44;;;;;;;6.30;1.30;;;;;7.30;93311.00;;;;7394515;19;20160;-77
2023/10/22 05:02:12;;;;;;;5.20;1.07;;;;;7.20;93311.00;;;;7394010;19;20637;-78
2023/10/22 05:04:47;;;;;;;2.57;0.93;;;;;7.20;93310.00;;;;7393403;19;20482;-80
2023/10/22 05:07:22;;;;;;;2.90;0.93;;;;;7.30;93320.00;;;;7392336;19;20174;-80
2023/10/22 05:10:04;;;;;;;2.47;0.80;;;;;7.10;93314.00;;;;7392434;19;20140;-79
2023/10/22 05:12:46;;;;;;;4.97;1.20;;;;;7.10;93317.00;;;;7394961;19;20457;-78
2023/10/22 05:15:16;;;;;;;3.20;0.90;;;;;7.20;93314.00;;;;7394363;19;20604;-77
2023/10/22 05:17:50;;;;;;;2.80;1.20;;;;;7.20;93323.00;;;;7394152;19;20140;-78
2023/10/22 05:20:19;;;;;;;3.33;0.83;;;;;7.20;93319.00;;;;7393145;19;20617;-77
2023/10/22 05:22:53;;;;;;;4.40;0.90;;;;;7.20;93324.00;;;;7395715;19;20132;-77
2023/10/22 05:25:22;;;;;;;2.20;1.00;;;;;7.20;93327.00;;;;7395237;19;20136;-78
2023/10/22 05:27:57;;;;;;;4.50;1.13;;;;;7.30;93326.00;;;;7394651;19;20146;-77
2023/10/22 05:30:26;;;;;;;7.97;1.17;;;;;7.20;93341.00;;;;7395833;19;20128;-77
2023/10/22 05:33:01;;;;;;;2.20;0.83;;;;;7.20;93342.00;;;;7393634;19;20128;-77
2023/10/22 05:35:36;;;;;;;2.10;0.93;;;;;7.20;93344.00;;;;7393821;19;21663;-79
2023/10/22 05:38:10;;;;;;;2.63;1.20;;;;;7.30;93348.00;;;;7392760;19;20136;-79
2023/10/22 05:40:48;;;;;;;2.37;1.57;;;;;7.10;93344.00;;;;7393695;19;20149;-74
2023/10/22 05:43:23;;;;;;;5.90;1.50;;;;;7.00;93345.00;;;;7392644;19;20142;-75
2023/10/22 05:45:58;;;;;;;6.60;1.30;;;;;6.90;93356.00;;;;7391804;19;20156;-77
2023/10/22 05:48:34;;;;;;;2.93;0.90;;;;;6.80;93357.00;;;;7394617;19;20144;-75
2023/10/22 05:51:10;;;;;;;5.80;1.00;;;;;6.70;93364.00;;;;7392757;19;20611;-75
2023/10/22 05:53:40;;;;;;;2.63;1.03;;;;;6.70;93363.00;;;;7391429;19;20152;-75
2023/10/22 05:56:17;;;;;;;5.90;1.23;;;;;6.70;93367.00;;;;7390765;19;20638;-78
2023/10/22 05:58:45;;;;;;;4.53;1.40;;;;;6.70;93376.00;;;;7393396;19;20176;-75
2023/10/22 06:01:21;;;;;;;5.37;1.40;;;;;6.70;93381.00;;;;7392318;19;20275;-75
2023/10/22 06:03:55;;;;;;;3.87;1.13;;;;;6.70;93390.00;;;;7392006;19;20497;-75
2023/10/22 06:06:30;;;;;;;2.97;1.20;;;;;6.80;93386.00;;;;7394101;19;20135;-76
2023/10/22 06:08:58;;;;;;;3.03;1.17;;;;;6.80;93390.00;;;;7391474;19;20743;-78
2023/10/22 06:11:35;;;;;;;4.67;1.10;;;;;6.80;93397.00;;;;7391351;19;20148;-77
2023/10/22 06:14:10;;;;;;;2.40;1.13;;;;;6.90;93402.00;;;;7392639;19;20596;-81
2023/10/22 06:16:45;;;;;;;5.50;1.20;;;;;6.90;93400.00;;;;7390864;19;20492;-81
2023/10/22 06:19:19;;;;;;;3.00;1.20;;;;;6.90;93402.00;;;;7394377;19;20150;-75
2023/10/22 06:21:47;;;;;;;2.50;1.20;;;;;6.90;93401.00;;;;7396882;19;20619;-76
2023/10/22 06:24:25;;;;;;;2.10;1.00;;;;;7.00;93411.00;;;;7398760;19;20161;-76
2023/10/22 06:26:59;;;;;;;3.83;1.17;;;;;7.20;93401.00;;;;7399985;19;20670;-79
2023/10/22 06:29:34;;;;;;;4.20;1.10;;;;;7.20;93394.00;;;;7399090;19;20162;-77
2023/10/22 06:32:03;;;;;;;6.07;1.20;;;;;7.20;93403.00;;;;7400195;19;20141;-73
2023/10/22 06:34:31;;;;;;;4.47;1.30;;;;;7.40;93411.00;;;;7395290;19;20132;-75
2023/10/22 06:37:05;;;;;;;1.57;1.07;;;;;7.50;93408.00;;;;7397736;19;20155;-74
2023/10/22 06:39:33;;;;;;;5.33;1.67;;;;;7.50;93414.00;;;;7397673;19;20478;-75
2023/10/22 06:42:02;;;;;;;3.90;1.00;;;;;7.60;93417.00;;;;7396042;19;20511;-75
2023/10/22 06:44:42;;;;;;;6.43;1.70;;;;;7.80;93427.00;;;;7398326;19;20624;-77
2023/10/22 06:47:16;;;;;;;5.17;0.90;;;;;7.90;93421.00;;;;7399227;19;20149;-76
2023/10/22 06:49:50;;;;;;;4.40;1.40;;;;;8.00;93418.00;;;;7398201;19;20608;-77
2023/10/22 06:52:19;;;;;;;2.73;0.90;;;;;8.10;93422.00;;;;7397923;19;20256;-77
2023/10/22 06:54:49;;;;;;;5.23;1.43;;;;;8.30;93422.00;;;;7396795;19;20469;-77
2023/10/22 06:57:23;;;;;;;5.33;1.33;;;;;8.50;93428.00;;;;7397532;19;20220;-78
2023/10/22 06:59:52;;;;;;;5.63;1.23;;;;;8.50;93419.00;;;;7398431;19;20595;-78
2023/10/22 07:02:32;;;;;;;2.93;1.30;;;;;8.80;93427.00;;;;7396595;19;20176;-77
2023/10/22 07:05:01;;;;;;;5.90;1.23;;;;;9.00;93427.00;;;;7395302;19;20153;-77
2023/10/22 07:07:35;;;;;;;4.87;1.10;;;;;9.00;93425.00;;;;7396537;19;20155;-76
2023/10/22 07:10:04;;;;;;;8.10;1.10;;;;;9.20;93434.00;;;;7399146;19;20121;-76
2023/10/22 07:12:46;;;;;;;5.37;1.13;;;;;9.50;93431.00;;;;7398720;19;20165;-79
2023/10/22 07:15:16;;;;;;;5.97;1.13;;;;;9.60;93437.00;;;;7396530;19;20593;-78
2023/10/22 07:17:52;;;;;;;8.20;1.30;;;;;9.80;93435.00;;;;7400746;19;20162;-79
2023/10/22 07:20:21;;;;;;;4.80;1.13;;;;;10.10;93436.00;;;;7399052;19;20144;-78
2023/10/22 07:22:55;;;;;;;2.73;0.83;;;;;10.20;93437.00;;;;7399627;19;20133;-77
2023/10/22 07:25:31;;;;;;;4.72;1.13;;;;;10.50;93438.00;;;;7398504;19;20144;-77
2023/10/22 07:28:05;;;;;;;3.33;1.40;;;;;10.50;93432.00;;;;7400571;19;20472;-78
2023/10/22 07:30:47;;;;;;;2.97;1.15;;;;;10.80;93432.00;;;;7396348;19;20132;-79
2023/10/22 07:33:22;;;;;;;3.75;1.20;;;;;10.80;93428.00;;;;7394655;19;20161;-77
2023/10/22 07:36:03;;;;;;;6.95;1.23;;;;;11.10;93431.00;;;;7399071;19;20189;-78
2023/10/22 07:38:40;;;;;;;7.80;1.23;;;;;11.40;93430.00;;;;7399831;19;20136;-77
2023/10/22 07:41:16;;;;;;;4.15;1.42;;;;;11.40;93435.00;;;;7397841;19;20488;-76
2023/10/22 07:43:46;;;;;;;5.25;1.20;;;;;11.70;93435.00;;;;7400543;19;20637;-78
2023/10/22 07:46:23;;;;;;;5.35;1.52;;;;;11.90;93430.00;;;;7398457;19;20147;-78
2023/10/22 07:48:57;;;;;;;6.45;1.27;;;;;12.00;93441.00;;;;7397575;19;20644;-78
2023/10/22 07:51:28;;;;;;;6.85;1.92;;;;;12.10;93446.00;;;;7400683;19;20169;-77
2023/10/22 07:54:04;;;;;;;7.28;1.67;;;;;12.30;93440.00;;;;7398546;19;20131;-79
2023/10/22 07:56:32;;;;;;;4.53;1.38;;;;;12.50;93446.00;;;;7398298;19;20139;-76
2023/10/22 07:59:06;;;;;;;9.30;1.77;;;;;12.70;93458.00;;;;7398580;19;20140;-76
2023/10/22 08:01:40;;;;;;;6.07;1.35;;;;;12.80;93443.00;;;;7394184;19;20171;-74
2023/10/22 08:04:17;;;;;;;5.72;1.50;;;;;13.20;93456.00;;;;7396037;19;20168;-75
2023/10/22 08:06:45;;;;;;;7.28;1.25;;;;;13.40;93456.00;;;;7396665;19;20148;-74
2023/10/22 08:09:19;;;;;;;7.63;1.38;;;;;13.40;93460.00;;;;7396914;19;20211;-75
2023/10/22 08:12:01;;;;;;;5.35;1.80;;;;;13.60;93456.00;;;;7396743;19;20144;-76
2023/10/22 08:14:40;;;;;;;6.20;1.50;;;;;13.80;93455.00;;;;7394471;19;20151;-73
2023/10/22 08:17:16;;;;;;;6.05;1.50;;;;;14.10;93464.00;;;;7399772;19;20600;-75
2023/10/22 08:19:52;;;;;;;3.55;1.35;;;;;14.00;93469.00;;;;7394787;19;20177;-75
2023/10/22 08:22:20;;;;;;;4.82;1.33;;;;;13.10;93472.00;;;;7395709;19;20584;-75
2023/10/22 08:24:55;;;;;;;3.88;1.20;;;;;12.90;93474.00;;;;7396863;19;20152;-73
2023/10/22 08:27:23;;;;;;;5.68;1.45;;;;;13.00;93483.00;;;;7394737;19;20160;-78
2023/10/22 08:29:58;;;;;;;10.50;1.70;;;;;12.90;93474.00;;;;7394145;19;20523;-74
2023/10/22 08:32:34;;;;;;;6.10;1.40;;;;;13.00;93480.00;;;;7398161;19;20151;-76
2023/10/22 08:35:10;;;;;;;5.15;1.50;;;;;13.00;93473.00;;;;7393929;19;20604;-78
2023/10/22 08:37:39;;;;;;;5.97;1.48;;;;;13.40;93482.00;;;;7395203;19;20149;-74
2023/10/22 08:40:14;;;;;;;7.28;1.77;;;;;13.50;93492.00;;;;7396116;19;20520;-74
2023/10/22 08:42:45;;;;;;;8.48;1.75;;;;;14.20;93490.00;;;;7395202;19;20157;-74
2023/10/22 08:45:20;;;;;;;6.68;1.42;;;;;14.40;93493.00;;;;7393804;19;20656;-74
2023/10/22 08:47:48;;;;;;;4.72;1.50;;;;;14.20;93507.00;;;;7396975;19;20480;-75
2023/10/22 08:50:25;;;;;;;6.20;1.98;;;;;14.10;93494.00;;;;7394315;19;20140;-74
2023/10/22 08:52:54;;;;;;;6.72;1.70;;;;;14.30;93504.00;;;;7396603;19;20152;-72
2023/10/22 08:55:30;;;;;;;8.85;1.83;;;;;14.30;93504.00;;;;7393561;19;20172;-77
2023/10/22 08:58:00;;;;;;;7.10;1.50;;;;;14.80;93498.00;;;;7395503;19;20136;-75
2023/10/22 09:00:36;;;;;;;5.00;1.67;;;;;15.30;93503.00;;;;7393103;19;20132;-74
2023/10/22 09:03:04;;;;;;;6.90;2.00;;;;;14.30;93520.00;;;;7396303;19;20595;-74
2023/10/22 09:05:32;;;;;;;6.68;1.60;;;;;13.50;93522.00;;;;7394186;19;20566;-73
2023/10/22 09:08:10;;;;;;;7.88;1.83;;;;;12.70;93531.00;;;;7395281;19;20144;-74
2023/10/22 09:10:51;;;;;;;8.57;1.83;;;;;13.50;93522.00;;;;7394931;19;20188;-77
2023/10/22 09:13:22;;;;;;;7.47;1.70;;;;;14.00;93511.00;;;;7394741;19;20190;-78
2023/10/22 09:15:57;;;;;;;5.57;1.77;;;;;14.70;93504.00;;;;7392701;19;20535;-76
2023/10/22 09:18:25;;;;;;;6.53;1.60;;;;;15.00;93514.00;;;;7394700;19;20154;-75
2023/10/22 09:21:06;;;;;;;6.45;2.10;;;;;15.60;93508.00;;;;7396927;19;20628;-80
2023/10/22 09:24:04;;;;;;;7.05;1.70;;;;;15.90;93510.00;;;;7392133;19;20155;-76
2023/10/22 09:26:53;;;;;;;4.93;1.73;;;;;16.20;93518.00;;;;7395083;19;20518;-76
2023/10/22 09:29:28;;;;;;;8.13;1.90;;;;;17.00;93509.00;;;;7393846;19;20137;-76
2023/10/22 09:32:06;;;;;;;4.25;1.50;;;;;16.40;93504.00;;;;7395328;19;20125;-80
2023/10/22 09:34:41;;;;;;;4.72;1.50;;;;;16.40;93519.00;;;;7393072;19;20133;-79
2023/10/22 09:37:16;;;;;;;6.45;1.52;;;;;16.30;93518.00;;;;7396959;19;20139;-78
2023/10/22 09:39:45;;;;;;;3.33;1.40;;;;;16.00;93528.00;;;;7394254;19;20153;-76
2023/10/22 09:42:24;;;;;;;5.88;1.40;;;;;15.20;93536.00;;;;7395244;19;20144;-77
2023/10/22 09:44:52;;;;;;;5.55;1.30;;;;;15.60;93518.00;;;;7393576;19;22112;-78
2023/10/22 09:47:27;;;;;;;8.85;1.73;;;;;16.70;93522.00;;;;7393290;19;20168;-77
2023/10/22 09:50:07;;;;;;;2.25;1.20;;;;;16.20;93519.00;;;;7394824;19;20191;-80
2023/10/22 09:52:58;;;;;;;7.35;1.90;;;;;15.70;93541.00;;;;7394327;19;20208;-76
2023/10/22 09:55:36;;;;;;;6.43;1.30;;;;;14.90;93554.00;;;;7388457;19;20192;-78
2023/10/22 09:58:16;;;;;;;5.85;1.63;;;;;14.80;93547.00;;;;7391782;19;20471;-76
2023/10/22 10:00:51;;;;;;;8.60;1.40;;;;;14.60;93557.00;;;;7392425;19;20667;-80
2023/10/22 10:03:21;;;;;;;4.85;1.50;;;;;14.40;93573.00;;;;7394378;19;20144;-77
2023/10/22 10:05:56;;;;;;;3.33;1.25;;;;;14.60;93552.00;;;;7393764;19;20540;-77
2023/10/22 10:08:31;;;;;;;6.72;1.30;;;;;14.30;93574.00;;;;7392773;19;20140;-78
2023/10/22 10:11:17;;;;;;;6.05;1.33;;;;;14.80;93549.00;;;;7393872;19;20156;-76
2023/10/22 10:13:46;;;;;;;4.53;1.42;;;;;15.60;93560.00;;;;7392294;19;20624;-77
2023/10/22 10:16:23;;;;;;;5.63;1.33;;;;;15.80;93559.00;;;;7392456;19;20243;-79
2023/10/22 10:19:03;;;;;;;5.75;1.55;;;;;15.20;93569.00;;;;7395483;19;20146;-75
2023/10/22 10:21:39;;;;;;;2.65;1.13;;;;;14.60;93590.00;;;;7391823;19;20157;-79
2023/10/22 10:24:21;;;;;;;3.90;0.95;;;;;13.80;93586.00;;;;7395444;19;20241;-78
2023/10/22 10:27:05;;;;;;;6.13;1.67;;;;;13.60;93583.00;;;;7393671;19;20174;-78
2023/10/22 10:29:40;;;;;;;3.58;1.20;;;;;13.30;93575.00;;;;7392174;19;20584;-78
2023/10/22 10:32:18;;;;;;;4.60;1.08;;;;;14.40;93572.00;;;;7390300;19;20151;-78
2023/10/22 10:34:59;;;;;;;4.60;1.40;;;;;14.40;93575.00;;;;7390670;19;20141;-75
2023/10/22 10:37:34;;;;;;;5.25;1.40;;;;;14.50;93588.00;;;;7392505;19;20506;-77
2023/10/22 10:40:06;;;;;;;3.15;1.30;;;;;15.20;93572.00;;;;7390275;19;20132;-77
2023/10/22 10:42:53;;;;;;;4.47;1.30;;;;;16.60;93580.00;;;;7393356;19;20200;-77
2023/10/22 10:45:27;;;;;;;4.88;1.13;;;;;16.80;93573.00;;;;7392809;19;20140;-76
2023/10/22 10:48:02;;;;;;;5.82;1.60;;;;;16.80;93561.00;;;;7391565;19;20143;-76
2023/10/22 10:50:39;;;;;;;9.45;1.90;;;;;16.80;93564.00;;;;7392765;19;20144;-76
2023/10/22 10:53:07;;;;;;;2.53;1.13;;;;;16.40;93559.00;;;;7393038;19;20141;-77
2023/10/22 10:55:36;;;;;;;5.07;1.13;;;;;15.80;93590.00;;;;7389035;19;20145;-76
2023/10/22 10:58:12;;;;;;;3.88;1.10;;;;;15.70;93576.00;;;;7394597;19;20137;-74
2023/10/22 11:00:53;;;;;;;4.00;1.10;;;;;14.90;93594.00;;;;7393255;19;20165;-76
2023/10/22 11:03:31;;;;;;;5.28;1.52;;;;;14.70;93589.00;;;;7393524;19;20651;-79
2023/10/22 11:06:12;;;;;;;5.72;1.45;;;;;14.40;93583.00;;;;7392261;19;20156;-76
2023/10/22 11:08:46;;;;;;;8.10;1.35;;;;;14.10;93585.00;;;;7400192;19;20148;-76
2023/10/22 11:11:15;;;;;;;5.20;1.25;;;;;14.30;93597.00;;;;7399212;19;20224;-73
2023/10/22 11:14:11;;;;;;;4.80;1.00;;;;;14.90;93571.00;;;;7400299;19;20141;-76
2023/10/22 11:16:57;;;;;;;3.00;1.08;;;;;15.60;93564.00;;;;7399792;19;20162;-74
2023/10/22 11:19:34;;;;;;;4.30;1.80;;;;;16.70;93548.00;;;;7398510;19;20147;-73
2023/10/22 11:22:12;;;;;;;4.03;1.10;;;;;16.70;93561.00;;;;7399774;19;20619;-74
2023/10/22 11:24:48;;;;;;;4.43;1.13;;;;;16.70;93560.00;;;;7399936;19;20137;-76
2023/10/22 11:27:22;;;;;;;4.18;1.30;;;;;17.50;93552.00;;;;7399790;19;20152;-73
2023/10/22 11:30:00;;;;;;;5.03;1.08;;;;;17.90;93560.00;;;;7398988;19;20481;-75
2023/10/22 11:32:47;;;;;;;3.30;1.13;;;;;17.20;93570.00;;;;7398856;19;20144;-75
2023/10/22 11:35:32;;;;;;;2.15;1.02;;;;;17.30;93568.00;;;;7397794;19;20141;-75
2023/10/22 11:38:03;;;;;;;2.28;1.30;;;;;18.10;93568.00;;;;7398288;19;20139;-76
2023/10/22 11:40:41;;;;;;;4.50;1.33;;;;;18.60;93581.00;;;;7398825;19;20501;-75
2023/10/22 11:43:17;;;;;;;2.70;1.17;;;;;17.90;93577.00;;;;7399121;19;20144;-74
2023/10/22 11:45:56;;;;;;;3.10;1.10;;;;;17.90;93574.00;;;;7398902;19;20592;-75
2023/10/22 11:48:25;;;;;;;3.42;1.05;;;;;19.00;93555.00;;;;7400138;19;20604;-75
2023/10/22 11:51:01;;;;;;;2.65;1.08;;;;;19.50;93559.00;;;;7401258;19;20160;-75
2023/10/22 11:53:48;;;;;;;3.42;1.27;;;;;20.60;93553.00;;;;7398769;19;20256;-76
2023/10/22 11:56:22;;;;;;;3.20;1.38;;;;;19.80;93563.00;;;;7395604;19;20144;-76
2023/10/22 11:58:56;;;;;;;1.95;1.00;;;;;19.10;93569.00;;;;7400029;19;20584;-77
2023/10/22 12:01:32;;;;;;;4.20;1.10;;;;;18.80;93571.00;;;;7397443;19;20168;-77
2023/10/22 12:04:10;;;;;;;4.68;1.25;;;;;19.50;93570.00;;;;7397096;19;20480;-77
2023/10/22 12:06:44;;;;;;;1.98;1.25;;;;;20.40;93577.00;;;;7398388;19;20168;-76
2023/10/22 12:09:13;;;;;;;4.88;1.40;;;;;19.80;93569.00;;;;7398254;19;21044;-73
2023/10/22 12:11:54;;;;;;;4.25;1.13;;;;;20.30;93577.00;;;;7398784;19;20167;-74
2023/10/22 12:14:23;;;;;;;3.38;1.60;;;;;20.30;93567.00;;;;7398793;19;20136;-75
2023/10/22 12:16:58;;;;;;;2.33;1.10;;;;;21.10;93577.00;;;;7394810;19;20204;-73
2023/10/22 12:19:26;;;;;;;4.57;1.33;;;;;20.90;93578.00;;;;7394937;19;20176;-78
2023/10/22 12:22:19;;;;;;;2.75;1.20;;;;;20.40;93583.00;;;;7397186;19;20208;-77
2023/10/22 12:24:50;;;;;;;4.55;1.42;;;;;21.30;93581.00;;;;7398874;19;20593;-78
2023/10/22 12:27:25;;;;;;;4.10;1.48;;;;;19.90;93590.00;;;;7396253;19;20604;-80
2023/10/22 12:29:53;;;;;;;4.43;1.13;;;;;20.40;93611.00;;;;7397315;19;20765;-79
2023/10/22 12:32:30;;;;;;;2.80;1.13;;;;;18.30;93594.00;;;;7396081;19;20140;-76
2023/10/22 12:35:05;;;;;;;3.80;1.27;;;;;16.80;93621.00;;;;7393906;19;20148;-78
2023/10/22 12:37:39;;;;;;;4.82;1.10;;;;;16.10;93629.00;;;;7396221;19;20155;-77
2023/10/22 12:40:16;;;;;;;3.92;1.25;;;;;16.00;93643.00;;;;7397539;19;20173;-77
2023/10/22 12:42:50;;;;;;;1.85;0.95;;;;;15.10;93641.00;;;;7395966;19;20645;-77
2023/10/22 12:45:28;;;;;;;3.88;1.15;;;;;15.30;93614.00;;;;7395942;19;20140;-76
2023/10/22 12:48:03;;;;;;;4.03;1.10;;;;;17.00;93633.00;;;;7396285;19;20144;-76
2023/10/22 12:50:32;;;;;;;1.42;0.85;;;;;17.30;93627.00;;;;7397607;19;20136;-76
2023/10/22 12:53:08;;;;;;;7.78;1.08;;;;;15.80;93636.00;;;;7395279;19;20157;-77
2023/10/22 12:55:55;;;;;;;2.42;1.42;;;;;16.00;93649.00;;;;7396791;19;20592;-76
2023/10/22 12:58:23;;;;;;;2.25;0.90;;;;;14.90;93644.00;;;;7395885;19;20144;-78
2023/10/22 13:00:58;;;;;;;3.17;1.10;;;;;14.70;93637.00;;;;7395897;19;20178;-77